Ute Mountain Indian Reservat, Colorado
Current Conditions -  °F | °C
As of 6:53 PM on Thursday 18 Dec 2014 (Local Time) from KCEZ Reporting Station
Few Clouds Few Clouds  
Wind Chill: 29°   Ceiling: Unl
Heat Index: 29°   Visibility: 10mi
Dew Point: 26°   Wind: 3mph
Humidity: 89%   Direction: 110°ESE
Pressure: 30.14"   Gusts: NA
Location:  37.1336°N, 108.707°W
Report Text: KCEZ 190153Z AUTO 11003KT 10SM FEW047 M02/M03 A3014 RMK AO2 SLP213 T10171033
Loading
Personal Weather Stations






























Interactive Weather Map New forecast layout! Learn more

10-Day Weather Forecast

Advertisements
Track Severe Weather on mobile